sensor_id;sensor_type;location;lat;lon;timestamp;noise_LAeq;noise_LA_min;noise_LA_max;noise_LA01;noise_LA95
76382;Laerm;65202;52.520;10.528;2023-03-21T00:01:52;38.06;31.31;50.95;;
76382;Laerm;65202;52.520;10.528;2023-03-21T00:04:21;38.34;31.80;45.15;;
76382;Laerm;65202;52.520;10.528;2023-03-21T00:06:49;37.75;31.90;50.23;;
76382;Laerm;65202;52.520;10.528;2023-03-21T00:09:17;37.81;31.20;50.14;;
76382;Laerm;65202;52.520;10.528;2023-03-21T00:11:45;38.33;31.73;51.45;;
76382;Laerm;65202;52.520;10.528;2023-03-21T00:14:12;39.20;32.09;51.93;;
76382;Laerm;65202;52.520;10.528;2023-03-21T00:16:47;38.86;31.89;52.76;;
76382;Laerm;65202;52.520;10.528;2023-03-21T00:19:17;38.75;31.08;52.70;;
76382;Laerm;65202;52.520;10.528;2023-03-21T00:21:46;39.14;32.08;52.01;;
76382;Laerm;65202;52.520;10.528;2023-03-21T00:24:35;38.64;31.37;51.97;;
76382;Laerm;65202;52.520;10.528;2023-03-21T00:27:03;38.69;31.37;52.90;;
76382;Laerm;65202;52.520;10.528;2023-03-21T00:29:51;39.23;31.74;51.77;;
76382;Laerm;65202;52.520;10.528;2023-03-21T00:32:20;39.05;31.36;52.79;;
76382;Laerm;65202;52.520;10.528;2023-03-21T00:34:48;38.88;31.16;53.20;;
76382;Laerm;65202;52.520;10.528;2023-03-21T00:37:36;38.23;31.37;53.96;;
76382;Laerm;65202;52.520;10.528;2023-03-21T00:40:04;39.53;31.68;53.59;;
76382;Laerm;65202;52.520;10.528;2023-03-21T00:42:45;39.43;32.20;51.08;;
76382;Laerm;65202;52.520;10.528;2023-03-21T00:45:12;40.02;32.28;52.46;;
76382;Laerm;65202;52.520;10.528;2023-03-21T00:47:41;40.65;32.17;63.00;;
76382;Laerm;65202;52.520;10.528;2023-03-21T00:50:09;39.89;31.82;54.15;;
76382;Laerm;65202;52.520;10.528;2023-03-21T00:52:37;39.21;31.16;56.61;;
76382;Laerm;65202;52.520;10.528;2023-03-21T00:55:13;39.66;31.41;53.95;;
76382;Laerm;65202;52.520;10.528;2023-03-21T00:57:41;39.83;32.30;52.92;;
76382;Laerm;65202;52.520;10.528;2023-03-21T01:00:16;38.82;31.36;52.52;;
76382;Laerm;65202;52.520;10.528;2023-03-21T01:02:44;39.85;32.57;52.17;;
76382;Laerm;65202;52.520;10.528;2023-03-21T01:05:42;39.51;32.20;62.49;;
76382;Laerm;65202;52.520;10.528;2023-03-21T01:08:30;39.14;31.83;63.46;;
76382;Laerm;65202;52.520;10.528;2023-03-21T01:11:21;40.45;31.94;50.42;;
76382;Laerm;65202;52.520;10.528;2023-03-21T01:13:49;39.10;31.53;59.86;;
76382;Laerm;65202;52.520;10.528;2023-03-21T01:16:30;38.81;31.32;51.46;;
76382;Laerm;65202;52.520;10.528;2023-03-21T01:18:58;38.65;31.29;51.79;;
76382;Laerm;65202;52.520;10.528;2023-03-21T01:21:25;38.90;31.57;52.26;;
76382;Laerm;65202;52.520;10.528;2023-03-21T01:23:53;38.90;31.37;52.03;;
76382;Laerm;65202;52.520;10.528;2023-03-21T01:26:20;40.41;33.55;52.40;;
76382;Laerm;65202;52.520;10.528;2023-03-21T01:28:48;39.31;31.48;53.00;;
76382;Laerm;65202;52.520;10.528;2023-03-21T01:31:16;38.48;31.03;53.00;;
76382;Laerm;65202;52.520;10.528;2023-03-21T01:33:44;38.29;30.99;52.31;;
76382;Laerm;65202;52.520;10.528;2023-03-21T01:36:19;39.09;31.20;51.97;;
76382;Laerm;65202;52.520;10.528;2023-03-21T01:38:51;38.66;31.34;51.17;;
76382;Laerm;65202;52.520;10.528;2023-03-21T01:41:39;38.58;31.55;56.23;;
76382;Laerm;65202;52.520;10.528;2023-03-21T01:44:15;39.00;32.76;51.06;;
76382;Laerm;65202;52.520;10.528;2023-03-21T01:46:46;39.26;32.69;50.48;;
76382;Laerm;65202;52.520;10.528;2023-03-21T01:49:41;38.53;31.59;50.60;;
76382;Laerm;65202;52.520;10.528;2023-03-21T01:52:33;38.51;31.97;51.07;;
76382;Laerm;65202;52.520;10.528;2023-03-21T01:55:09;39.19;31.69;48.77;;
76382;Laerm;65202;52.520;10.528;2023-03-21T01:57:45;38.72;31.82;51.97;;
76382;Laerm;65202;52.520;10.528;2023-03-21T02:00:31;38.33;32.06;50.13;;
76382;Laerm;65202;52.520;10.528;2023-03-21T02:03:02;38.93;32.22;51.18;;
76382;Laerm;65202;52.520;10.528;2023-03-21T02:05:58;38.73;31.98;51.82;;
76382;Laerm;65202;52.520;10.528;2023-03-21T02:08:30;37.99;31.30;50.26;;
76382;Laerm;65202;52.520;10.528;2023-03-21T02:11:07;38.10;31.04;57.70;;
76382;Laerm;65202;52.520;10.528;2023-03-21T02:13:36;38.49;31.55;50.50;;
76382;Laerm;65202;52.520;10.528;2023-03-21T02:28:28;38.85;31.97;60.35;;
76382;Laerm;65202;52.520;10.528;2023-03-21T02:34:11;36.43;32.59;51.66;;
76382;Laerm;65202;52.520;10.528;2023-03-21T02:37:21;38.55;33.24;52.89;;
76382;Laerm;65202;52.520;10.528;2023-03-21T02:43:26;39.02;33.01;53.26;;
76382;Laerm;65202;52.520;10.528;2023-03-21T02:46:06;39.95;33.04;55.29;;
76382;Laerm;65202;52.520;10.528;2023-03-21T02:48:43;38.52;32.12;57.74;;
76382;Laerm;65202;52.520;10.528;2023-03-21T02:51:21;43.57;32.12;62.39;;
76382;Laerm;65202;52.520;10.528;2023-03-21T02:54:00;39.70;31.86;68.23;;
76382;Laerm;65202;52.520;10.528;2023-03-21T02:56:51;38.67;31.46;61.15;;
76382;Laerm;65202;52.520;10.528;2023-03-21T02:59:22;38.41;31.46;53.98;;
76382;Laerm;65202;52.520;10.528;2023-03-21T03:01:53;39.34;31.53;52.68;;
76382;Laerm;65202;52.520;10.528;2023-03-21T03:04:24;39.59;31.70;53.76;;
76382;Laerm;65202;52.520;10.528;2023-03-21T03:07:38;37.86;30.90;59.56;;
76382;Laerm;65202;52.520;10.528;2023-03-21T03:14:15;39.01;31.78;64.46;;
76382;Laerm;65202;52.520;10.528;2023-03-21T03:17:19;39.78;31.64;64.95;;
76382;Laerm;65202;52.520;10.528;2023-03-21T03:20:27;38.39;31.30;57.98;;
76382;Laerm;65202;52.520;10.528;2023-03-21T03:23:12;41.43;33.01;66.29;;
76382;Laerm;65202;52.520;10.528;2023-03-21T03:25:46;39.52;33.05;53.82;;
76382;Laerm;65202;52.520;10.528;2023-03-21T03:28:24;39.94;34.15;53.48;;
76382;Laerm;65202;52.520;10.528;2023-03-21T03:30:54;40.18;32.72;59.72;;
76382;Laerm;65202;52.520;10.528;2023-03-21T03:33:40;44.08;34.48;58.47;;
76382;Laerm;65202;52.520;10.528;2023-03-21T03:36:12;42.37;32.82;66.85;;
76382;Laerm;65202;52.520;10.528;2023-03-21T03:39:00;40.38;32.94;59.00;;
76382;Laerm;65202;52.520;10.528;2023-03-21T03:41:32;37.32;32.03;58.71;;
76382;Laerm;65202;52.520;10.528;2023-03-21T03:44:22;41.12;32.49;61.96;;
76382;Laerm;65202;52.520;10.528;2023-03-21T03:47:15;45.81;35.09;62.39;;
76382;Laerm;65202;52.520;10.528;2023-03-21T03:50:11;40.58;35.90;59.99;;
76382;Laerm;65202;52.520;10.528;2023-03-21T03:52:48;40.59;33.29;58.32;;
76382;Laerm;65202;52.520;10.528;2023-03-21T03:55:25;46.34;33.34;65.57;;
76382;Laerm;65202;52.520;10.528;2023-03-21T03:57:54;41.92;35.48;62.98;;
76382;Laerm;65202;52.520;10.528;2023-03-21T04:00:22;42.82;35.11;68.17;;
76382;Laerm;65202;52.520;10.528;2023-03-21T04:02:49;44.06;33.12;63.52;;
76382;Laerm;65202;52.520;10.528;2023-03-21T04:05:16;43.12;36.17;54.05;;
76382;Laerm;65202;52.520;10.528;2023-03-21T04:07:47;42.65;35.40;54.25;;
76382;Laerm;65202;52.520;10.528;2023-03-21T04:10:18;42.58;34.61;60.56;;
76382;Laerm;65202;52.520;10.528;2023-03-21T04:12:46;42.31;34.76;57.40;;
76382;Laerm;65202;52.520;10.528;2023-03-21T04:15:13;48.16;35.78;65.66;;
76382;Laerm;65202;52.520;10.528;2023-03-21T04:17:42;43.65;36.88;53.40;;
76382;Laerm;65202;52.520;10.528;2023-03-21T04:20:12;43.68;37.18;65.92;;
76382;Laerm;65202;52.520;10.528;2023-03-21T04:22:56;43.05;36.08;54.89;;
76382;Laerm;65202;52.520;10.528;2023-03-21T04:25:24;48.50;38.42;65.30;;
76382;Laerm;65202;52.520;10.528;2023-03-21T04:28:01;45.33;38.81;57.46;;
76382;Laerm;65202;52.520;10.528;2023-03-21T04:30:28;44.55;37.49;59.57;;
76382;Laerm;65202;52.520;10.528;2023-03-21T04:32:55;43.83;37.85;62.43;;
76382;Laerm;65202;52.520;10.528;2023-03-21T04:35:23;45.09;37.35;62.93;;
76382;Laerm;65202;52.520;10.528;2023-03-21T04:37:50;46.18;38.59;61.18;;
76382;Laerm;65202;52.520;10.528;2023-03-21T04:40:18;45.57;38.94;58.12;;
76382;Laerm;65202;52.520;10.528;2023-03-21T04:42:47;45.01;37.00;65.47;;
76382;Laerm;65202;52.520;10.528;2023-03-21T04:45:15;47.48;38.31;66.24;;
76382;Laerm;65202;52.520;10.528;2023-03-21T04:47:42;48.86;38.32;69.92;;
76382;Laerm;65202;52.520;10.528;2023-03-21T04:50:11;50.51;38.23;73.21;;
76382;Laerm;65202;52.520;10.528;2023-03-21T04:52:39;48.85;37.87;62.86;;
76382;Laerm;65202;52.520;10.528;2023-03-21T04:55:07;47.51;39.90;63.60;;
76382;Laerm;65202;52.520;10.528;2023-03-21T04:57:37;44.89;38.39;58.80;;
76382;Laerm;65202;52.520;10.528;2023-03-21T05:00:06;48.08;38.87;64.14;;
76382;Laerm;65202;52.520;10.528;2023-03-21T05:02:39;46.94;38.25;64.34;;
76382;Laerm;65202;52.520;10.528;2023-03-21T05:05:07;45.00;37.55;65.81;;
76382;Laerm;65202;52.520;10.528;2023-03-21T05:07:39;46.38;38.42;64.23;;
76382;Laerm;65202;52.520;10.528;2023-03-21T05:10:09;46.67;39.20;64.64;;
76382;Laerm;65202;52.520;10.528;2023-03-21T05:12:37;49.88;38.58;70.05;;
76382;Laerm;65202;52.520;10.528;2023-03-21T05:15:06;47.74;39.08;62.48;;
76382;Laerm;65202;52.520;10.528;2023-03-21T05:17:33;44.57;37.41;66.13;;
76382;Laerm;65202;52.520;10.528;2023-03-21T05:20:00;46.07;38.83;65.10;;
76382;Laerm;65202;52.520;10.528;2023-03-21T05:22:28;49.74;40.12;67.03;;
76382;Laerm;65202;52.520;10.528;2023-03-21T05:24:55;50.62;39.73;64.37;;
76382;Laerm;65202;52.520;10.528;2023-03-21T05:27:22;51.95;38.35;67.04;;
76382;Laerm;65202;52.520;10.528;2023-03-21T05:30:13;48.58;39.70;65.47;;
76382;Laerm;65202;52.520;10.528;2023-03-21T05:32:40;54.96;39.67;69.26;;
76382;Laerm;65202;52.520;10.528;2023-03-21T05:35:09;50.29;40.09;64.67;;
76382;Laerm;65202;52.520;10.528;2023-03-21T05:37:37;46.29;39.24;66.60;;
76382;Laerm;65202;52.520;10.528;2023-03-21T05:40:05;46.19;39.53;63.88;;
76382;Laerm;65202;52.520;10.528;2023-03-21T05:42:33;49.05;40.15;66.74;;
76382;Laerm;65202;52.520;10.528;2023-03-21T05:45:00;45.59;39.37;67.46;;
76382;Laerm;65202;52.520;10.528;2023-03-21T05:47:27;45.22;40.04;57.76;;
76382;Laerm;65202;52.520;10.528;2023-03-21T05:49:54;46.12;39.16;66.22;;
76382;Laerm;65202;52.520;10.528;2023-03-21T05:52:22;46.25;39.83;65.15;;
76382;Laerm;65202;52.520;10.528;2023-03-21T05:54:49;45.46;39.58;64.29;;
76382;Laerm;65202;52.520;10.528;2023-03-21T05:57:17;47.70;38.85;58.96;;
76382;Laerm;65202;52.520;10.528;2023-03-21T05:59:45;46.32;39.77;64.44;;
76382;Laerm;65202;52.520;10.528;2023-03-21T06:02:12;47.90;39.06;68.79;;
76382;Laerm;65202;52.520;10.528;2023-03-21T06:04:39;47.57;39.04;62.90;;
76382;Laerm;65202;52.520;10.528;2023-03-21T06:07:07;45.51;39.26;62.10;;
76382;Laerm;65202;52.520;10.528;2023-03-21T06:09:34;50.64;39.28;67.60;;
76382;Laerm;65202;52.520;10.528;2023-03-21T06:12:02;51.54;41.37;67.99;;
76382;Laerm;65202;52.520;10.528;2023-03-21T06:14:29;47.20;40.11;61.50;;
76382;Laerm;65202;52.520;10.528;2023-03-21T06:16:56;47.43;39.67;60.92;;
76382;Laerm;65202;52.520;10.528;2023-03-21T06:19:25;47.37;39.86;62.98;;
76382;Laerm;65202;52.520;10.528;2023-03-21T06:21:53;44.79;39.19;55.10;;
76382;Laerm;65202;52.520;10.528;2023-03-21T06:24:20;45.14;39.83;61.19;;
76382;Laerm;65202;52.520;10.528;2023-03-21T06:26:47;46.15;40.99;55.24;;
76382;Laerm;65202;52.520;10.528;2023-03-21T06:29:14;48.37;41.12;65.60;;
76382;Laerm;65202;52.520;10.528;2023-03-21T06:31:42;50.26;40.93;61.21;;
76382;Laerm;65202;52.520;10.528;2023-03-21T06:34:09;49.72;39.01;66.96;;
76382;Laerm;65202;52.520;10.528;2023-03-21T06:36:37;50.07;39.30;65.45;;
76382;Laerm;65202;52.520;10.528;2023-03-21T06:39:04;46.94;40.45;56.07;;
76382;Laerm;65202;52.520;10.528;2023-03-21T06:41:34;45.56;39.35;68.46;;
76382;Laerm;65202;52.520;10.528;2023-03-21T06:44:02;48.86;39.99;63.19;;
76382;Laerm;65202;52.520;10.528;2023-03-21T06:46:29;50.37;39.70;63.38;;
76382;Laerm;65202;52.520;10.528;2023-03-21T06:48:57;47.24;39.91;57.72;;
76382;Laerm;65202;52.520;10.528;2023-03-21T06:51:24;47.02;39.12;64.56;;
76382;Laerm;65202;52.520;10.528;2023-03-21T06:53:51;49.04;40.29;68.50;;
76382;Laerm;65202;52.520;10.528;2023-03-21T06:56:18;47.39;39.22;58.62;;
76382;Laerm;65202;52.520;10.528;2023-03-21T06:58:45;47.95;39.30;65.38;;
76382;Laerm;65202;52.520;10.528;2023-03-21T07:01:13;51.45;39.78;65.34;;
76382;Laerm;65202;52.520;10.528;2023-03-21T07:03:40;47.08;39.15;62.17;;
76382;Laerm;65202;52.520;10.528;2023-03-21T07:06:10;49.58;39.86;68.51;;
76382;Laerm;65202;52.520;10.528;2023-03-21T07:08:39;49.05;41.09;63.15;;
76382;Laerm;65202;52.520;10.528;2023-03-21T07:11:08;50.67;39.68;63.83;;
76382;Laerm;65202;52.520;10.528;2023-03-21T07:13:35;50.01;40.47;64.00;;
76382;Laerm;65202;52.520;10.528;2023-03-21T07:16:03;48.17;38.53;59.46;;
76382;Laerm;65202;52.520;10.528;2023-03-21T07:18:30;48.32;39.16;64.04;;
76382;Laerm;65202;52.520;10.528;2023-03-21T07:20:58;48.73;39.00;61.04;;
76382;Laerm;65202;52.520;10.528;2023-03-21T07:23:26;47.66;38.95;64.68;;
76382;Laerm;65202;52.520;10.528;2023-03-21T07:25:54;56.85;41.98;72.73;;
76382;Laerm;65202;52.520;10.528;2023-03-21T07:28:22;50.08;40.19;63.44;;
76382;Laerm;65202;52.520;10.528;2023-03-21T07:30:57;48.84;40.02;66.76;;
76382;Laerm;65202;52.520;10.528;2023-03-21T07:33:25;55.59;44.33;70.49;;
76382;Laerm;65202;52.520;10.528;2023-03-21T07:35:54;46.71;38.86;58.47;;
76382;Laerm;65202;52.520;10.528;2023-03-21T07:38:24;47.77;39.64;61.08;;
76382;Laerm;65202;52.520;10.528;2023-03-21T07:40:52;46.86;38.90;58.40;;
76382;Laerm;65202;52.520;10.528;2023-03-21T07:43:19;47.81;38.97;58.60;;
76382;Laerm;65202;52.520;10.528;2023-03-21T07:45:47;48.85;40.41;58.34;;
76382;Laerm;65202;52.520;10.528;2023-03-21T07:48:14;46.17;38.04;56.36;;
76382;Laerm;65202;52.520;10.528;2023-03-21T07:50:43;46.62;38.75;58.10;;
76382;Laerm;65202;52.520;10.528;2023-03-21T07:53:10;47.22;39.99;57.45;;
76382;Laerm;65202;52.520;10.528;2023-03-21T07:55:37;47.25;40.00;61.60;;
76382;Laerm;65202;52.520;10.528;2023-03-21T07:58:05;49.93;40.46;67.03;;
76382;Laerm;65202;52.520;10.528;2023-03-21T08:00:32;47.97;40.65;61.18;;
76382;Laerm;65202;52.520;10.528;2023-03-21T08:03:00;49.27;38.64;64.65;;
76382;Laerm;65202;52.520;10.528;2023-03-21T08:05:36;46.30;38.68;56.76;;
76382;Laerm;65202;52.520;10.528;2023-03-21T08:08:05;49.02;38.91;64.88;;
76382;Laerm;65202;52.520;10.528;2023-03-21T08:10:33;45.85;38.77;56.55;;
76382;Laerm;65202;52.520;10.528;2023-03-21T08:13:01;46.10;38.28;58.28;;
76382;Laerm;65202;52.520;10.528;2023-03-21T08:15:28;46.99;40.13;58.55;;
76382;Laerm;65202;52.520;10.528;2023-03-21T08:17:58;47.44;39.34;60.09;;
76382;Laerm;65202;52.520;10.528;2023-03-21T08:20:26;49.25;38.22;66.51;;
76382;Laerm;65202;52.520;10.528;2023-03-21T08:22:54;48.69;37.63;64.90;;
76382;Laerm;65202;52.520;10.528;2023-03-21T08:25:21;47.41;39.37;60.46;;
76382;Laerm;65202;52.520;10.528;2023-03-21T08:27:50;49.70;38.43;62.99;;
76382;Laerm;65202;52.520;10.528;2023-03-21T08:30:21;47.23;38.50;59.55;;
76382;Laerm;65202;52.520;10.528;2023-03-21T08:32:49;48.88;38.00;62.83;;
76382;Laerm;65202;52.520;10.528;2023-03-21T08:35:18;47.10;37.81;60.50;;
76382;Laerm;65202;52.520;10.528;2023-03-21T08:37:46;45.73;36.97;56.43;;
76382;Laerm;65202;52.520;10.528;2023-03-21T08:40:16;48.83;37.56;65.64;;
76382;Laerm;65202;52.520;10.528;2023-03-21T08:42:44;48.96;42.08;67.90;;
76382;Laerm;65202;52.520;10.528;2023-03-21T08:45:15;48.85;41.69;58.59;;
76382;Laerm;65202;52.520;10.528;2023-03-21T08:47:43;47.43;42.11;57.25;;
76382;Laerm;65202;52.520;10.528;2023-03-21T08:50:18;52.00;37.47;74.22;;
76382;Laerm;65202;52.520;10.528;2023-03-21T08:52:48;47.11;37.62;60.86;;
76382;Laerm;65202;52.520;10.528;2023-03-21T08:55:17;49.14;37.93;65.23;;
76382;Laerm;65202;52.520;10.528;2023-03-21T08:57:44;48.90;38.16;63.86;;
76382;Laerm;65202;52.520;10.528;2023-03-21T09:00:15;47.64;38.10;61.79;;
76382;Laerm;65202;52.520;10.528;2023-03-21T09:02:46;49.68;38.21;61.14;;
76382;Laerm;65202;52.520;10.528;2023-03-21T09:05:18;50.16;37.58;65.58;;
76382;Laerm;65202;52.520;10.528;2023-03-21T09:07:46;51.62;39.96;64.23;;
76382;Laerm;65202;52.520;10.528;2023-03-21T09:10:19;50.52;39.77;66.78;;
76382;Laerm;65202;52.520;10.528;2023-03-21T09:12:51;46.37;38.52;57.50;;
76382;Laerm;65202;52.520;10.528;2023-03-21T09:15:21;49.10;38.42;64.90;;
76382;Laerm;65202;52.520;10.528;2023-03-21T09:17:51;49.32;37.19;64.84;;
76382;Laerm;65202;52.520;10.528;2023-03-21T09:20:25;46.78;38.87;56.33;;
76382;Laerm;65202;52.520;10.528;2023-03-21T09:22:58;48.84;38.69;63.68;;
76382;Laerm;65202;52.520;10.528;2023-03-21T09:25:25;53.29;39.39;71.41;;
76382;Laerm;65202;52.520;10.528;2023-03-21T09:27:58;49.30;38.79;58.22;;
76382;Laerm;65202;52.520;10.528;2023-03-21T09:30:26;47.48;39.40;59.55;;
76382;Laerm;65202;52.520;10.528;2023-03-21T09:32:53;46.47;39.28;59.89;;
76382;Laerm;65202;52.520;10.528;2023-03-21T09:35:22;50.77;38.43;66.47;;
76382;Laerm;65202;52.520;10.528;2023-03-21T09:37:50;47.87;39.75;59.03;;
76382;Laerm;65202;52.520;10.528;2023-03-21T09:40:42;46.68;38.51;56.22;;
76382;Laerm;65202;52.520;10.528;2023-03-21T09:43:40;47.78;39.07;61.11;;
76382;Laerm;65202;52.520;10.528;2023-03-21T09:49:03;54.53;38.22;69.25;;
76382;Laerm;65202;52.520;10.528;2023-03-21T09:51:42;49.99;38.16;65.90;;
76382;Laerm;65202;52.520;10.528;2023-03-21T09:54:26;47.92;37.45;59.42;;
76382;Laerm;65202;52.520;10.528;2023-03-21T09:57:00;47.81;38.08;62.80;;
76382;Laerm;65202;52.520;10.528;2023-03-21T09:59:35;49.04;39.03;64.09;;
76382;Laerm;65202;52.520;10.528;2023-03-21T10:02:38;49.73;37.42;75.65;;
76382;Laerm;65202;52.520;10.528;2023-03-21T10:05:29;47.01;40.10;60.44;;
76382;Laerm;65202;52.520;10.528;2023-03-21T10:08:21;54.44;38.63;78.62;;
76382;Laerm;65202;52.520;10.528;2023-03-21T10:10:58;46.26;38.48;58.68;;
76382;Laerm;65202;52.520;10.528;2023-03-21T10:13:35;46.57;38.53;56.06;;
76382;Laerm;65202;52.520;10.528;2023-03-21T10:16:20;46.01;38.94;58.56;;
76382;Laerm;65202;52.520;10.528;2023-03-21T10:18:50;47.19;38.62;58.94;;
76382;Laerm;65202;52.520;10.528;2023-03-21T10:21:29;48.41;38.19;62.56;;
76382;Laerm;65202;52.520;10.528;2023-03-21T10:24:24;45.39;37.30;57.00;;
76382;Laerm;65202;52.520;10.528;2023-03-21T10:26:54;46.76;39.59;56.99;;
76382;Laerm;65202;52.520;10.528;2023-03-21T10:29:40;56.57;38.25;73.79;;
76382;Laerm;65202;52.520;10.528;2023-03-21T10:32:11;51.99;37.66;72.28;;
76382;Laerm;65202;52.520;10.528;2023-03-21T10:34:49;47.93;37.54;62.40;;
76382;Laerm;65202;52.520;10.528;2023-03-21T10:37:18;49.16;38.05;65.65;;
76382;Laerm;65202;52.520;10.528;2023-03-21T10:39:50;47.90;38.49;61.27;;
76382;Laerm;65202;52.520;10.528;2023-03-21T10:42:25;47.32;39.17;60.22;;
76382;Laerm;65202;52.520;10.528;2023-03-21T10:44:55;48.36;39.49;64.29;;
76382;Laerm;65202;52.520;10.528;2023-03-21T10:47:30;47.32;38.45;62.62;;
76382;Laerm;65202;52.520;10.528;2023-03-21T10:50:11;51.61;37.99;66.64;;
76382;Laerm;65202;52.520;10.528;2023-03-21T10:52:48;46.90;38.64;59.55;;
76382;Laerm;65202;52.520;10.528;2023-03-21T10:55:30;46.40;38.73;56.35;;
76382;Laerm;65202;52.520;10.528;2023-03-21T10:58:07;47.38;39.51;58.84;;
76382;Laerm;65202;52.520;10.528;2023-03-21T11:00:40;48.42;37.43;58.89;;
76382;Laerm;65202;52.520;10.528;2023-03-21T11:03:23;46.79;38.52;57.71;;
76382;Laerm;65202;52.520;10.528;2023-03-21T11:06:05;45.25;37.77;56.84;;
76382;Laerm;65202;52.520;10.528;2023-03-21T11:08:45;45.30;37.43;56.01;;
76382;Laerm;65202;52.520;10.528;2023-03-21T11:11:25;46.18;37.29;61.50;;
76382;Laerm;65202;52.520;10.528;2023-03-21T11:14:06;52.40;37.44;71.45;;
76382;Laerm;65202;52.520;10.528;2023-03-21T11:16:43;51.05;38.03;68.49;;
76382;Laerm;65202;52.520;10.528;2023-03-21T11:19:25;45.42;37.66;56.39;;
76382;Laerm;65202;52.520;10.528;2023-03-21T11:21:56;45.50;38.08;56.09;;
76382;Laerm;65202;52.520;10.528;2023-03-21T11:24:28;52.45;38.71;68.79;;
76382;Laerm;65202;52.520;10.528;2023-03-21T11:26:57;46.45;38.28;56.60;;
76382;Laerm;65202;52.520;10.528;2023-03-21T11:29:30;52.26;38.61;67.84;;
76382;Laerm;65202;52.520;10.528;2023-03-21T11:32:35;50.52;38.51;65.76;;
76382;Laerm;65202;52.520;10.528;2023-03-21T11:35:13;45.81;38.43;56.66;;
76382;Laerm;65202;52.520;10.528;2023-03-21T11:37:50;45.74;38.57;56.24;;
76382;Laerm;65202;52.520;10.528;2023-03-21T11:40:31;48.78;37.19;68.22;;
76382;Laerm;65202;52.520;10.528;2023-03-21T11:45:35;44.85;36.86;56.57;;
76382;Laerm;65202;52.520;10.528;2023-03-21T11:48:12;44.86;37.78;56.03;;
76382;Laerm;65202;52.520;10.528;2023-03-21T11:50:58;47.11;37.27;57.78;;
76382;Laerm;65202;52.520;10.528;2023-03-21T11:56:57;48.35;36.95;66.02;;
76382;Laerm;65202;52.520;10.528;2023-03-21T11:59:51;48.45;37.85;76.47;;
76382;Laerm;65202;52.520;10.528;2023-03-21T12:02:42;47.13;39.29;68.84;;
76382;Laerm;65202;52.520;10.528;2023-03-21T12:05:22;52.18;39.43;71.56;;
76382;Laerm;65202;52.520;10.528;2023-03-21T12:08:50;52.73;39.65;80.58;;
76382;Laerm;65202;52.520;10.528;2023-03-21T12:11:51;56.39;41.78;88.21;;
76382;Laerm;65202;52.520;10.528;2023-03-21T12:17:44;49.70;39.41;65.66;;
76382;Laerm;65202;52.520;10.528;2023-03-21T12:20:46;49.69;39.73;75.92;;
76382;Laerm;65202;52.520;10.528;2023-03-21T12:23:45;53.38;39.92;81.53;;
76382;Laerm;65202;52.520;10.528;2023-03-21T12:26:24;66.63;41.94;88.94;;
76382;Laerm;65202;52.520;10.528;2023-03-21T12:35:07;58.20;39.30;78.98;;
76382;Laerm;65202;52.520;10.528;2023-03-21T12:40:54;54.12;39.27;70.99;;
76382;Laerm;65202;52.520;10.528;2023-03-21T12:43:42;49.17;39.92;65.86;;
76382;Laerm;65202;52.520;10.528;2023-03-21T12:46:43;49.12;39.98;71.13;;
76382;Laerm;65202;52.520;10.528;2023-03-21T12:49:29;56.32;38.97;86.20;;
76382;Laerm;65202;52.520;10.528;2023-03-21T12:52:05;51.73;39.03;71.04;;
76382;Laerm;65202;52.520;10.528;2023-03-21T12:54:43;47.26;39.61;63.17;;
76382;Laerm;65202;52.520;10.528;2023-03-21T12:57:21;47.23;39.34;58.59;;
76382;Laerm;65202;52.520;10.528;2023-03-21T13:00:00;50.02;39.64;66.42;;
76382;Laerm;65202;52.520;10.528;2023-03-21T13:02:48;47.31;39.64;56.47;;
76382;Laerm;65202;52.520;10.528;2023-03-21T13:05:30;48.66;39.76;64.38;;
76382;Laerm;65202;52.520;10.528;2023-03-21T13:08:34;45.62;39.06;56.44;;
76382;Laerm;65202;52.520;10.528;2023-03-21T13:11:05;50.53;40.39;75.64;;
76382;Laerm;65202;52.520;10.528;2023-03-21T13:16:29;50.33;39.56;61.78;;
76382;Laerm;65202;52.520;10.528;2023-03-21T13:24:40;45.66;38.50;58.06;;
76382;Laerm;65202;52.520;10.528;2023-03-21T13:27:33;47.74;38.63;65.68;;
76382;Laerm;65202;52.520;10.528;2023-03-21T13:32:43;46.63;38.37;56.15;;
76382;Laerm;65202;52.520;10.528;2023-03-21T13:35:23;51.91;39.70;68.56;;
76382;Laerm;65202;52.520;10.528;2023-03-21T13:38:04;49.70;39.06;65.49;;
76382;Laerm;65202;52.520;10.528;2023-03-21T13:40:49;49.36;41.04;62.00;;
76382;Laerm;65202;52.520;10.528;2023-03-21T13:52:00;46.26;39.33;56.49;;
76382;Laerm;65202;52.520;10.528;2023-03-21T13:54:50;45.52;38.73;59.51;;
76382;Laerm;65202;52.520;10.528;2023-03-21T13:57:34;47.74;38.49;61.48;;
76382;Laerm;65202;52.520;10.528;2023-03-21T14:00:26;49.69;38.57;67.21;;
76382;Laerm;65202;52.520;10.528;2023-03-21T14:03:05;49.00;39.10;60.94;;
76382;Laerm;65202;52.520;10.528;2023-03-21T14:05:34;54.57;38.78;69.01;;
76382;Laerm;65202;52.520;10.528;2023-03-21T14:08:07;49.81;39.58;63.27;;
76382;Laerm;65202;52.520;10.528;2023-03-21T14:10:52;50.17;39.04;67.41;;
76382;Laerm;65202;52.520;10.528;2023-03-21T14:13:24;48.05;38.57;61.93;;
76382;Laerm;65202;52.520;10.528;2023-03-21T14:15:58;50.80;38.35;68.91;;
76382;Laerm;65202;52.520;10.528;2023-03-21T14:18:27;47.58;39.89;68.14;;
76382;Laerm;65202;52.520;10.528;2023-03-21T14:21:26;50.26;39.53;67.97;;
76382;Laerm;65202;52.520;10.528;2023-03-21T14:23:59;45.88;38.74;58.69;;
76382;Laerm;65202;52.520;10.528;2023-03-21T14:26:35;46.53;39.07;59.49;;
76382;Laerm;65202;52.520;10.528;2023-03-21T14:29:05;46.47;38.50;58.85;;
76382;Laerm;65202;52.520;10.528;2023-03-21T14:31:51;46.96;39.40;57.55;;
76382;Laerm;65202;52.520;10.528;2023-03-21T14:34:21;52.63;39.26;68.09;;
76382;Laerm;65202;52.520;10.528;2023-03-21T14:36:49;49.55;39.59;64.11;;
76382;Laerm;65202;52.520;10.528;2023-03-21T14:39:30;46.22;39.21;59.93;;
76382;Laerm;65202;52.520;10.528;2023-03-21T14:42:11;46.16;39.61;57.85;;
76382;Laerm;65202;52.520;10.528;2023-03-21T14:44:47;49.95;39.21;66.61;;
76382;Laerm;65202;52.520;10.528;2023-03-21T14:47:25;45.82;38.37;64.35;;
76382;Laerm;65202;52.520;10.528;2023-03-21T14:49:55;49.56;39.52;70.26;;
76382;Laerm;65202;52.520;10.528;2023-03-21T14:52:32;50.00;39.11;68.85;;
76382;Laerm;65202;52.520;10.528;2023-03-21T14:55:05;51.07;38.31;69.42;;
76382;Laerm;65202;52.520;10.528;2023-03-21T14:57:37;51.95;39.29;67.64;;
76382;Laerm;65202;52.520;10.528;2023-03-21T15:00:13;50.15;39.26;69.40;;
76382;Laerm;65202;52.520;10.528;2023-03-21T15:02:44;52.26;38.81;71.65;;
76382;Laerm;65202;52.520;10.528;2023-03-21T15:05:28;52.17;38.96;69.10;;
76382;Laerm;65202;52.520;10.528;2023-03-21T15:08:00;51.94;38.85;70.62;;
76382;Laerm;65202;52.520;10.528;2023-03-21T15:10:30;51.99;40.81;68.65;;
76382;Laerm;65202;52.520;10.528;2023-03-21T15:13:09;52.14;39.46;71.50;;
76382;Laerm;65202;52.520;10.528;2023-03-21T15:15:40;49.17;39.07;68.93;;
76382;Laerm;65202;52.520;10.528;2023-03-21T15:18:14;49.68;38.81;71.46;;